»·PEaware :: ASA2430 KGPI-KSEA

ASA2430 :: KGPI-KSEA

FLIGHT INFORMATION

Flight Status: Arrived
Operator:
Alaska Airlines
More flights by this operator :: More flights under this callsign
Pilot: Anonymous 43901 (43901)
Aircraft: BOEING 737-900
(B739)
More flights by this aircraft type
Origin: KGPI Glacier Park Intl
United States
Destination: KSEA Seattle-Tacoma Intl
United States
More flights between these airports :: More routes between these airports
Route: SKOTT2 SKOTT EYCHO GEG GLASR2
File this flight plan on PilotEdge
Remarks:
Altitude:
(Current/Filed)
30,000ft
Speed:
(Current/Filed)
449kts
Departed: 30-Jun-23 12:40 PM
Arrived: 30-Jun-23 01:49 PM
Distance/Time
Traveled:
328nm/1:08
Distance/Time
To Go:
Arrived

Flight Plot

Page will automatically refresh every two minutes.

Flight plan parsing failed; only flown route is shown


Map Options




Map Legend


Flown Route
Filed Route
Departure Airport
Arrival Airport
Navaid (VOR, NDB)
Fix

Horizontal Profiles

Position Reports

Time Latitude Longitude Heading Altitude Ground
Speed
30-Jun-23 12:00 48.307525 -114.253706 125 2976ft 0kts
30-Jun-23 12:01 48.307525 -114.253706 125 2976ft 0kts
30-Jun-23 12:02 48.307525 -114.253706 125 2976ft 0kts
30-Jun-23 12:03 48.307525 -114.253706 125 2976ft 0kts
30-Jun-23 12:04 48.307525 -114.253706 125 2976ft 0kts
30-Jun-23 12:05 48.307525 -114.253706 125 2976ft 0kts
30-Jun-23 12:06 48.307525 -114.253706 125 2976ft 0kts
30-Jun-23 12:07 48.307525 -114.253706 125 2976ft 0kts
30-Jun-23 12:08 48.307525 -114.253706 125 2976ft 0kts
30-Jun-23 12:09 48.307525 -114.253706 125 2995ft 0kts
30-Jun-23 12:10 48.307525 -114.253706 125 2995ft 0kts
30-Jun-23 12:11 48.307525 -114.253706 125 2995ft 0kts
30-Jun-23 12:12 48.307525 -114.253706 125 2995ft 0kts
30-Jun-23 12:13 48.307525 -114.253706 125 2995ft 0kts
30-Jun-23 12:14 48.307525 -114.253706 125 2995ft 0kts
30-Jun-23 12:15 48.307525 -114.253706 125 2995ft 0kts
30-Jun-23 12:16 48.307525 -114.253706 125 2995ft 0kts
30-Jun-23 12:17 48.307525 -114.253706 125 2995ft 0kts
30-Jun-23 12:18 48.307525 -114.253706 125 2995ft 0kts
30-Jun-23 12:19 48.307525 -114.253706 125 2995ft 0kts
30-Jun-23 12:20 48.307525 -114.253706 125 2995ft 0kts
30-Jun-23 12:21 48.307525 -114.253706 125 2995ft 0kts
30-Jun-23 12:22 48.307525 -114.253706 125 2995ft 0kts
30-Jun-23 12:23 48.307525 -114.253706 125 2995ft 0kts
30-Jun-23 12:24 48.307525 -114.253706 125 2976ft 0kts
30-Jun-23 12:25 48.307525 -114.253706 125 2976ft 0kts
30-Jun-23 12:26 48.307525 -114.253706 125 2976ft 0kts
30-Jun-23 12:27 48.307525 -114.253706 125 2977ft 0kts
30-Jun-23 12:28 48.307905 -114.254319 149 2976ft 2kts
30-Jun-23 12:29 48.308128 -114.254321 214 2976ft 0kts
30-Jun-23 12:30 48.308128 -114.254321 214 2976ft 0kts
30-Jun-23 12:31 48.308128 -114.254321 214 2976ft 0kts
30-Jun-23 12:32 48.308128 -114.254321 214 2976ft 0kts
30-Jun-23 12:33 48.308107 -114.254343 216 2976ft 2kts
30-Jun-23 12:34 48.309757 -114.254168 35 2976ft 13kts
30-Jun-23 12:35 48.312784 -114.250972 35 2976ft 16kts
30-Jun-23 12:36 48.316413 -114.247212 34 2976ft 14kts
30-Jun-23 12:37 48.318356 -114.245511 321 2977ft 0kts
30-Jun-23 12:38 48.318585 -114.246991 218 2980ft 7kts
30-Jun-23 12:39 48.298128 -114.267737 211 3328ft 171kts
30-Jun-23 12:40 48.256773 -114.240214 137 5878ft 191kts
30-Jun-23 12:41 48.213995 -114.178114 153 7228ft 251kts
30-Jun-23 12:42 48.139507 -114.169580 180 9248ft 286kts
30-Jun-23 12:43 48.053079 -114.164285 179 10745ft 351kts
30-Jun-23 12:44 47.950944 -114.156957 179 12865ft 374kts
30-Jun-23 12:45 47.845413 -114.149592 182 15048ft 385kts
30-Jun-23 12:46 47.774106 -114.245913 261 17103ft 381kts
30-Jun-23 12:47 47.802652 -114.397078 296 19029ft 395kts
30-Jun-23 12:48 47.853872 -114.544257 295 20881ft 404kts
30-Jun-23 12:49 47.905436 -114.695902 295 22601ft 414kts
30-Jun-23 12:50 47.936824 -114.858851 265 24151ft 418kts
30-Jun-23 12:51 47.915963 -115.030807 259 25596ft 424kts
30-Jun-23 12:52 47.894252 -115.203640 260 27362ft 419kts
30-Jun-23 12:53 47.873107 -115.372257 260 29483ft 409kts
30-Jun-23 12:54 47.851956 -115.538949 260 29996ft 408kts
30-Jun-23 12:55 47.830794 -115.703693 260 29997ft 405kts
30-Jun-23 12:56 47.809451 -115.867884 259 30005ft 403kts
30-Jun-23 12:57 47.787904 -116.031698 259 30024ft 404kts
30-Jun-23 12:58 47.766122 -116.195429 259 30037ft 404kts
30-Jun-23 12:59 47.744037 -116.359520 259 30053ft 405kts
30-Jun-23 13:00 47.721703 -116.523604 259 30084ft 405kts
30-Jun-23 13:01 47.699164 -116.687284 259 30098ft 405kts
30-Jun-23 13:02 47.676408 -116.850755 259 30104ft 403kts
30-Jun-23 13:03 47.653469 -117.013725 258 30086ft 403kts
30-Jun-23 13:04 47.630346 -117.176248 258 30077ft 402kts
30-Jun-23 13:05 47.607009 -117.338533 258 30069ft 402kts
30-Jun-23 13:06 47.583486 -117.500453 258 30083ft 402kts
30-Jun-23 13:07 47.567465 -117.662837 276 30085ft 401kts
30-Jun-23 13:08 47.584172 -117.826258 276 30072ft 401kts
30-Jun-23 13:09 47.599282 -117.989975 276 30039ft 402kts
30-Jun-23 13:10 47.614580 -118.154167 276 30010ft 402kts
30-Jun-23 13:11 47.629649 -118.318068 276 30007ft 401kts
30-Jun-23 13:12 47.644501 -118.482274 276 30002ft 401kts
30-Jun-23 13:13 47.659052 -118.645838 275 30001ft 401kts
30-Jun-23 13:14 47.673383 -118.809614 275 30000ft 400kts
30-Jun-23 13:15 47.687525 -118.974015 275 29995ft 400kts
30-Jun-23 13:16 47.701372 -119.137777 275 29984ft 400kts
30-Jun-23 13:18 47.715006 -119.301867 275 29985ft 400kts
30-Jun-23 13:19 47.728408 -119.465887 275 29985ft 400kts
30-Jun-23 13:20 47.741526 -119.630228 274 29972ft 401kts
30-Jun-23 13:21 47.754407 -119.794583 274 29968ft 400kts
30-Jun-23 13:22 47.767095 -119.959490 274 29971ft 401kts
30-Jun-23 13:23 47.779523 -120.123991 274 29972ft 401kts
30-Jun-23 13:24 47.791724 -120.289230 274 29246ft 408kts
30-Jun-23 13:25 47.803938 -120.457757 274 27195ft 412kts
30-Jun-23 13:26 47.816057 -120.628499 274 25301ft 420kts
30-Jun-23 13:27 47.827755 -120.796265 274 24098ft 388kts
30-Jun-23 13:28 47.838379 -120.953018 274 23188ft 392kts
30-Jun-23 13:29 47.849097 -121.113668 273 22053ft 390kts
30-Jun-23 13:30 47.859424 -121.271923 273 20105ft 377kts
30-Jun-23 13:31 47.869057 -121.423765 273 18240ft 362kts
30-Jun-23 13:32 47.878343 -121.571421 273 16332ft 350kts
30-Jun-23 13:33 47.877348 -121.707024 243 16006ft 324kts
30-Jun-23 13:34 47.813318 -121.803118 223 16001ft 330kts
30-Jun-23 13:35 47.748021 -121.891160 223 16007ft 328kts
30-Jun-23 13:36 47.680549 -121.982024 223 16004ft 327kts
30-Jun-23 13:37 47.615646 -122.069166 223 14895ft 312kts
30-Jun-23 13:38 47.562299 -122.140549 223 13228ft 295kts
30-Jun-23 13:39 47.486182 -122.166252 183 12059ft 284kts
30-Jun-23 13:40 47.408764 -122.166711 182 10600ft 275kts
30-Jun-23 13:41 47.333089 -122.166373 181 8848ft 269kts
30-Jun-23 13:42 47.259481 -122.164118 176 7236ft 258kts
30-Jun-23 13:43 47.212535 -122.212689 264 5830ft 230kts
30-Jun-23 13:44 47.235659 -122.282997 335 4557ft 211kts
30-Jun-23 13:45 47.289661 -122.312434 2 3377ft 194kts
30-Jun-23 13:46 47.342558 -122.308436 358 2201ft 180kts
30-Jun-23 13:47 47.389124 -122.307932 357 1247ft 162kts
30-Jun-23 13:48 47.430949 -122.308134 356 474ft 146kts
30-Jun-23 13:48 47.451609 -122.307867 10 425ft 13kts
30-Jun-23 13:49 47.450409 -122.306147 181 424ft 7kts
30-Jun-23 13:51 47.447553 -122.304876 92 428ft 9kts
30-Jun-23 13:52 47.446463 -122.303309 218 423ft 0kts
30-Jun-23 13:53 47.446463 -122.303309 218 423ft 0kts
30-Jun-23 13:53 47.446463 -122.303309 218 423ft 0kts
30-Jun-23 13:54 47.446463 -122.303309 218 431ft 0kts

Navigation Log

Ident Type
Flight plan parsing failed, navigation log unavailable